createdAt,value
2022-09-03T00:00:33.196Z,16.27
2022-09-03T00:03:09.086Z,16.22
2022-09-03T00:05:41.708Z,16.22
2022-09-03T00:08:20.902Z,16.20
2022-09-03T00:11:01.346Z,16.19
2022-09-03T00:13:33.549Z,16.18
2022-09-03T00:16:02.031Z,16.15
2022-09-03T00:18:33.438Z,16.11
2022-09-03T00:21:15.034Z,16.09
2022-09-03T00:23:44.363Z,16.12
2022-09-03T00:26:13.700Z,16.09
2022-09-03T00:28:51.641Z,16.04
2022-09-03T00:31:38.934Z,16.01
2022-09-03T00:34:26.683Z,15.97
2022-09-03T00:36:53.671Z,15.90
2022-09-03T00:39:23.209Z,15.92
2022-09-03T00:42:09.313Z,15.91
2022-09-03T00:44:48.447Z,15.91
2022-09-03T00:47:48.917Z,15.90
2022-09-03T00:50:40.102Z,15.90
2022-09-03T00:53:20.361Z,15.93
2022-09-03T00:55:58.835Z,15.93
2022-09-03T00:58:51.841Z,15.86
2022-09-03T01:01:24.400Z,15.76
2022-09-03T01:04:05.566Z,15.76
2022-09-03T01:07:04.356Z,15.70
2022-09-03T01:10:04.513Z,15.73
2022-09-03T01:12:58.203Z,15.73
2022-09-03T01:15:40.854Z,15.76
2022-09-03T01:18:17.281Z,15.69
2022-09-03T01:21:13.640Z,15.69
2022-09-03T01:24:07.351Z,15.59
2022-09-03T01:26:55.520Z,15.54
2022-09-03T01:29:27.051Z,15.54
2022-09-03T01:32:06.627Z,15.53
2022-09-03T01:34:42.128Z,15.55
2022-09-03T01:37:11.751Z,15.53
2022-09-03T01:40:17.209Z,15.61
2022-09-03T01:43:17.671Z,15.59
2022-09-03T01:45:55.014Z,15.62
2022-09-03T01:48:30.919Z,15.66
2022-09-03T01:51:18.924Z,15.69
2022-09-03T01:54:10.951Z,15.72
2022-09-03T01:57:06.673Z,15.76
2022-09-03T01:59:49.715Z,15.72
2022-09-03T02:02:28.514Z,15.73
2022-09-03T02:05:08.856Z,15.74
2022-09-03T02:07:57.787Z,15.75
2022-09-03T02:10:41.555Z,15.76
2022-09-03T02:13:25.768Z,15.79
2022-09-03T02:15:56.368Z,15.79
2022-09-03T02:18:28.757Z,15.80
2022-09-03T02:20:55.609Z,15.79
2022-09-03T02:23:28.261Z,15.81
2022-09-03T02:26:01.960Z,15.80
2022-09-03T02:28:30.938Z,15.78
2022-09-03T02:30:58.328Z,15.78
2022-09-03T02:33:26.165Z,15.80
2022-09-03T02:35:53.950Z,15.79
2022-09-03T02:38:25.603Z,15.77
2022-09-03T02:40:54.457Z,15.74
2022-09-03T02:43:30.981Z,15.72
2022-09-03T02:46:04.204Z,15.74
2022-09-03T02:48:30.983Z,15.77
2022-09-03T02:50:57.629Z,15.77
2022-09-03T02:53:24.259Z,15.74
2022-09-03T02:55:50.859Z,15.74
2022-09-03T02:58:17.718Z,15.73
2022-09-03T03:00:45.027Z,15.74
2022-09-03T03:03:11.665Z,15.74
2022-09-03T03:05:51.161Z,15.74
2022-09-03T03:08:21.525Z,15.74
2022-09-03T03:10:49.558Z,15.74
2022-09-03T03:13:16.624Z,15.76
2022-09-03T03:15:44.267Z,15.74
2022-09-03T03:18:14.336Z,15.75
2022-09-03T03:20:42.051Z,15.71
2022-09-03T03:23:09.012Z,15.65
2022-09-03T03:25:37.797Z,15.64
2022-09-03T03:28:05.190Z,15.58
2022-09-03T03:30:33.116Z,15.53
2022-09-03T03:33:00.710Z,15.49
2022-09-03T03:35:27.295Z,15.51
2022-09-03T03:37:53.883Z,15.47
2022-09-03T03:40:20.465Z,15.44
2022-09-03T03:42:47.116Z,15.44
2022-09-03T03:45:13.689Z,15.46
2022-09-03T03:47:40.285Z,15.45
2022-09-03T03:50:07.299Z,15.44
2022-09-03T03:52:34.059Z,15.45
2022-09-03T03:55:00.895Z,15.46
2022-09-03T03:57:31.684Z,15.46
2022-09-03T03:59:58.275Z,15.50
2022-09-03T04:02:25.228Z,15.51
2022-09-03T04:04:51.838Z,15.52
2022-09-03T04:07:18.465Z,15.52
2022-09-03T04:09:45.287Z,15.53
2022-09-03T04:12:11.877Z,15.56
2022-09-03T04:14:38.919Z,15.60
2022-09-03T04:17:05.610Z,15.60
2022-09-03T04:19:32.399Z,15.59
2022-09-03T04:21:59.083Z,15.58
2022-09-03T04:24:25.708Z,15.62
2022-09-03T04:26:54.059Z,15.64
2022-09-03T04:29:22.046Z,15.62
2022-09-03T04:32:07.414Z,15.61
2022-09-03T04:34:34.026Z,15.61
2022-09-03T04:37:00.630Z,15.61
2022-09-03T04:39:27.319Z,15.67
2022-09-03T04:41:53.971Z,15.67
2022-09-03T04:44:20.629Z,15.68
2022-09-03T04:46:48.401Z,15.64
2022-09-03T04:49:15.207Z,15.64
2022-09-03T04:51:42.225Z,15.67
2022-09-03T04:54:10.253Z,15.70
2022-09-03T04:56:39.011Z,15.75
2022-09-03T04:59:08.452Z,15.79
2022-09-03T05:01:37.571Z,15.80
2022-09-03T05:04:05.644Z,15.79
2022-09-03T05:06:33.341Z,15.81
2022-09-03T05:09:00.651Z,15.85
2022-09-03T05:11:28.962Z,15.85
2022-09-03T05:13:57.924Z,15.87
2022-09-03T05:16:25.497Z,15.88
2022-09-03T05:18:54.131Z,15.85
2022-09-03T05:21:21.105Z,15.85
2022-09-03T05:23:50.747Z,15.82
2022-09-03T05:26:19.805Z,15.80
2022-09-03T05:28:47.497Z,15.69
2022-09-03T05:31:19.422Z,15.53
2022-09-03T05:33:51.886Z,15.38
2022-09-03T05:36:24.137Z,15.23
2022-09-03T05:38:51.871Z,15.20
2022-09-03T05:41:19.129Z,15.11
2022-09-03T05:43:55.195Z,15.09
2022-09-03T05:46:30.155Z,15.03
2022-09-03T05:48:57.856Z,15.04
2022-09-03T05:51:24.440Z,15.08
2022-09-03T05:53:51.076Z,15.10
2022-09-03T05:56:20.201Z,15.22
2022-09-03T05:58:49.437Z,15.25
2022-09-03T06:01:21.394Z,15.35
2022-09-03T06:03:54.170Z,15.40
2022-09-03T06:06:27.918Z,15.53
2022-09-03T06:08:56.085Z,15.68
2022-09-03T06:11:26.847Z,15.74
2022-09-03T06:13:57.772Z,15.91
2022-09-03T06:16:28.982Z,15.98
2022-09-03T06:18:58.894Z,15.98
2022-09-03T06:21:25.594Z,15.92
2022-09-03T06:23:56.643Z,15.70
2022-09-03T06:26:28.131Z,15.63
2022-09-03T06:28:56.289Z,15.58
2022-09-03T06:31:23.524Z,15.56
2022-09-03T06:33:50.191Z,15.58
2022-09-03T06:36:19.071Z,15.62
2022-09-03T06:38:46.715Z,15.71
2022-09-03T06:41:25.010Z,15.75
2022-09-03T06:44:04.647Z,15.72
2022-09-03T06:46:33.798Z,15.75
2022-09-03T06:49:00.772Z,15.82
2022-09-03T06:51:29.856Z,15.83
2022-09-03T06:54:10.590Z,15.83
2022-09-03T06:56:40.837Z,15.88
2022-09-03T06:59:12.889Z,15.94
2022-09-03T07:01:45.306Z,15.95
2022-09-03T07:04:14.746Z,16.05
2022-09-03T07:06:42.657Z,16.10
2022-09-03T07:09:11.804Z,16.14
2022-09-03T07:11:45.707Z,16.11
2022-09-03T07:14:13.040Z,16.32
2022-09-03T07:16:41.799Z,16.36
2022-09-03T07:19:09.255Z,16.46
2022-09-03T07:21:37.077Z,16.63
2022-09-03T07:24:05.660Z,16.65
2022-09-03T07:26:35.159Z,16.50
2022-09-03T07:29:02.361Z,16.43
2022-09-03T07:31:37.826Z,16.36
2022-09-03T07:34:10.190Z,16.36
2022-09-03T07:36:46.848Z,16.39
2022-09-03T07:39:16.719Z,16.48
2022-09-03T07:41:45.679Z,16.58
2022-09-03T07:44:15.382Z,16.63
2022-09-03T07:46:43.660Z,16.71
2022-09-03T07:49:11.024Z,16.71
2022-09-03T07:51:39.190Z,16.68
2022-09-03T07:54:09.823Z,16.44
2022-09-03T07:56:37.253Z,16.44
2022-09-03T07:59:04.631Z,16.46
2022-09-03T08:01:32.950Z,16.49
2022-09-03T08:04:00.880Z,16.42
2022-09-03T08:06:28.886Z,16.45
2022-09-03T08:09:04.213Z,16.50
2022-09-03T08:11:31.988Z,16.59
2022-09-03T08:14:06.655Z,16.53
2022-09-03T08:16:36.398Z,16.53
2022-09-03T08:19:03.536Z,16.59
2022-09-03T08:21:30.108Z,16.57
2022-09-03T08:24:03.609Z,16.54
2022-09-03T08:26:35.595Z,16.72
2022-09-03T08:29:02.354Z,16.95
2022-09-03T08:31:30.528Z,17.04
2022-09-03T08:33:59.531Z,17.35
2022-09-03T08:36:30.076Z,17.61
2022-09-03T08:38:58.630Z,17.55
2022-09-03T08:41:37.617Z,17.36
2022-09-03T08:44:28.603Z,17.41
2022-09-03T08:47:11.621Z,17.60
2022-09-03T08:49:49.729Z,17.84
2022-09-03T08:52:49.874Z,18.16
2022-09-03T08:55:27.186Z,18.07
2022-09-03T08:58:04.864Z,18.14
2022-09-03T09:01:15.976Z,17.75
2022-09-03T09:03:48.775Z,17.57
2022-09-03T09:06:23.722Z,17.43
2022-09-03T09:09:06.540Z,17.39
2022-09-03T09:12:07.335Z,17.35
2022-09-03T09:14:45.651Z,17.33
2022-09-03T09:17:42.018Z,17.25
2022-09-03T09:20:21.653Z,17.53
2022-09-03T09:22:54.522Z,17.91
2022-09-03T09:25:23.337Z,18.28
2022-09-03T09:28:00.315Z,18.55
2022-09-03T09:30:29.246Z,18.97
2022-09-03T09:32:56.221Z,19.37
2022-09-03T09:35:23.953Z,19.07
2022-09-03T09:37:58.535Z,18.95
2022-09-03T09:40:36.732Z,18.73
2022-09-03T09:43:17.329Z,18.66
2022-09-03T09:45:46.188Z,18.93
2022-09-03T09:48:32.662Z,19.20
2022-09-03T09:51:09.774Z,19.84
2022-09-03T09:53:36.761Z,20.33
2022-09-03T09:56:03.955Z,20.99
2022-09-03T09:58:33.150Z,22.64
2022-09-03T10:01:03.558Z,23.31
2022-09-03T10:03:35.682Z,23.75
2022-09-03T10:06:27.463Z,23.24
2022-09-03T10:09:07.496Z,23.49
2022-09-03T10:11:38.894Z,23.48
2022-09-03T10:14:13.468Z,23.27
2022-09-03T10:16:48.962Z,23.09
2022-09-03T10:19:23.440Z,22.59
2022-09-03T10:22:06.076Z,22.45
2022-09-03T10:24:59.099Z,22.39
2022-09-03T10:27:25.944Z,21.95
2022-09-03T10:29:53.401Z,21.93
2022-09-03T10:32:38.861Z,21.95
2022-09-03T10:35:12.619Z,21.40
2022-09-03T10:37:39.195Z,21.02
2022-09-03T10:40:30.803Z,20.36
2022-09-03T10:43:17.660Z,20.41
2022-09-03T10:45:53.351Z,20.24
2022-09-03T10:48:38.499Z,20.12
2022-09-03T10:51:15.993Z,20.28
2022-09-03T10:54:13.779Z,20.40
2022-09-03T10:57:12.060Z,20.18
2022-09-03T10:59:58.847Z,20.11
2022-09-03T11:02:43.587Z,20.30
2022-09-03T11:05:10.203Z,20.89
2022-09-03T11:07:40.990Z,21.07
2022-09-03T11:10:30.688Z,20.95
2022-09-03T11:13:07.708Z,21.77
2022-09-03T11:15:37.179Z,21.84
2022-09-03T11:18:16.018Z,22.10
2022-09-03T11:20:44.136Z,22.10
2022-09-03T11:23:13.505Z,21.74
2022-09-03T11:25:49.462Z,21.92
2022-09-03T11:28:33.060Z,22.05
2022-09-03T11:31:35.195Z,22.37
2022-09-03T11:34:13.982Z,22.37
2022-09-03T11:36:48.816Z,22.10
2022-09-03T11:39:23.315Z,22.26
2022-09-03T11:42:02.171Z,22.29
2022-09-03T11:44:47.666Z,22.35
2022-09-03T11:47:24.240Z,23.02
2022-09-03T11:49:53.811Z,23.37
2022-09-03T11:52:40.394Z,24.28
2022-09-03T11:55:08.088Z,24.71
2022-09-03T11:57:43.895Z,24.97
2022-09-03T12:00:21.167Z,25.79
2022-09-03T12:02:58.941Z,25.41
2022-09-03T12:05:25.815Z,24.33
2022-09-03T12:08:20.205Z,24.83
2022-09-03T12:11:13.984Z,24.87
2022-09-03T12:14:20.581Z,25.06
2022-09-03T12:16:59.174Z,25.02
2022-09-03T12:19:36.228Z,23.93
2022-09-03T12:22:04.258Z,23.45
2022-09-03T12:24:37.826Z,23.60
2022-09-03T12:27:05.670Z,23.67
2022-09-03T12:29:32.280Z,24.30
2022-09-03T12:32:08.216Z,24.61
2022-09-03T12:34:34.870Z,24.43
2022-09-03T12:37:02.863Z,25.04
2022-09-03T12:42:25.894Z,24.71
2022-09-03T12:44:53.454Z,24.57
2022-09-03T12:47:38.569Z,24.33
2022-09-03T12:50:19.751Z,23.39
2022-09-03T12:52:52.428Z,23.18
2022-09-03T12:55:22.138Z,23.28
2022-09-03T12:57:57.850Z,23.42
2022-09-03T13:00:32.804Z,22.90
2022-09-03T13:02:59.384Z,22.17
2022-09-03T13:05:33.939Z,21.84
2022-09-03T13:08:05.342Z,21.68
2022-09-03T13:10:38.064Z,21.72
2022-09-03T13:13:16.391Z,22.34
2022-09-03T13:15:58.206Z,22.87
2022-09-03T13:18:43.550Z,23.65
2022-09-03T13:21:15.172Z,24.33
2022-09-03T13:24:02.104Z,24.63
2022-09-03T13:26:35.686Z,24.61
2022-09-03T13:29:08.344Z,24.07
2022-09-03T13:31:43.178Z,24.35
2022-09-03T13:34:20.986Z,24.37
2022-09-03T13:37:04.634Z,24.12
2022-09-03T13:39:39.945Z,24.42
2022-09-03T13:42:18.298Z,23.91
2022-09-03T13:44:55.370Z,24.34
2022-09-03T13:48:02.895Z,24.60
2022-09-03T13:50:37.920Z,24.99
2022-09-03T13:53:10.264Z,24.83
2022-09-03T13:55:56.136Z,24.17
2022-09-03T13:58:34.012Z,24.33
2022-09-03T14:01:15.953Z,24.07
2022-09-03T14:04:02.816Z,24.25
2022-09-03T14:06:41.044Z,24.01
2022-09-03T14:09:35.324Z,23.74
2022-09-03T14:12:19.243Z,23.61
2022-09-03T14:15:03.161Z,23.14
2022-09-03T14:17:48.677Z,22.56
2022-09-03T14:20:45.763Z,22.13
2022-09-03T14:23:55.057Z,21.91
2022-09-03T14:26:39.966Z,21.88
2022-09-03T14:29:12.894Z,21.78
2022-09-03T14:31:57.795Z,21.60
2022-09-03T14:35:08.812Z,21.73
2022-09-03T14:38:07.691Z,21.86
2022-09-03T14:40:58.673Z,22.26
2022-09-03T14:43:46.537Z,23.01
2022-09-03T14:46:46.116Z,23.57
2022-09-03T14:49:18.171Z,23.29
2022-09-03T14:52:12.830Z,23.56
2022-09-03T14:54:58.138Z,23.87
2022-09-03T14:57:31.559Z,23.98
2022-09-03T15:00:20.244Z,23.51
2022-09-03T15:02:57.725Z,23.36
2022-09-03T15:05:33.364Z,23.24
2022-09-03T15:08:08.173Z,22.74
2022-09-03T15:10:56.828Z,22.58
2022-09-03T15:13:50.006Z,22.47
2022-09-03T15:16:43.412Z,22.31
2022-09-03T15:19:19.565Z,21.99
2022-09-03T15:21:54.775Z,21.88
2022-09-03T15:24:54.596Z,21.88
2022-09-03T15:27:33.144Z,21.64
2022-09-03T15:30:15.012Z,21.55
2022-09-03T15:33:10.613Z,21.42
2022-09-03T15:35:49.825Z,21.33
2022-09-03T15:38:45.363Z,21.19
2022-09-03T15:41:39.896Z,21.15
2022-09-03T15:44:19.147Z,21.05
2022-09-03T15:47:05.338Z,21.06
2022-09-03T15:49:53.054Z,20.86
2022-09-03T15:52:33.449Z,20.60
2022-09-03T15:55:09.553Z,20.44
2022-09-03T15:57:54.720Z,20.26
2022-09-03T16:00:22.120Z,20.10
2022-09-03T16:03:11.924Z,19.97
2022-09-03T16:05:47.619Z,19.94
2022-09-03T16:08:29.532Z,19.89
2022-09-03T16:11:27.272Z,19.81
2022-09-03T16:13:59.696Z,19.81
2022-09-03T16:16:47.707Z,19.77
2022-09-03T16:19:24.392Z,19.79
2022-09-03T16:22:07.215Z,19.79
2022-09-03T16:24:45.152Z,19.68
2022-09-03T16:27:20.315Z,19.67
2022-09-03T16:29:59.315Z,19.64
2022-09-03T16:33:06.108Z,19.81
2022-09-03T16:36:00.849Z,19.78
2022-09-03T16:38:48.422Z,19.89
2022-09-03T16:42:02.736Z,20.01
2022-09-03T16:44:45.945Z,20.24
2022-09-03T16:47:26.533Z,20.40
2022-09-03T16:50:13.557Z,20.61
2022-09-03T16:53:01.832Z,20.94
2022-09-03T16:55:54.306Z,21.08
2022-09-03T16:58:26.826Z,21.27
2022-09-03T17:01:18.499Z,21.08
2022-09-03T17:03:53.346Z,21.10
2022-09-03T17:06:36.354Z,20.92
2022-09-03T17:09:27.944Z,20.81
2022-09-03T17:12:05.535Z,20.57
2022-09-03T17:15:09.300Z,20.37
2022-09-03T17:17:48.746Z,20.18
2022-09-03T17:20:20.033Z,20.02
2022-09-03T17:23:09.633Z,19.96
2022-09-03T17:25:47.844Z,19.92
2022-09-03T17:28:42.714Z,19.94
2022-09-03T17:31:36.905Z,19.92
2022-09-03T17:34:25.215Z,19.90
2022-09-03T17:37:08.227Z,19.89
2022-09-03T17:40:20.204Z,19.81
2022-09-03T17:42:55.922Z,19.73
2022-09-03T17:45:52.186Z,19.51
2022-09-03T17:49:01.304Z,19.33
2022-09-03T17:51:50.459Z,19.28
2022-09-03T17:54:25.875Z,19.20
2022-09-03T17:57:25.142Z,19.08
2022-09-03T18:00:06.745Z,18.96
2022-09-03T18:02:45.436Z,18.88
2022-09-03T18:05:19.391Z,18.81
2022-09-03T18:08:23.522Z,18.71
2022-09-03T18:11:09.199Z,18.56
2022-09-03T18:14:05.470Z,18.50
2022-09-03T18:16:34.724Z,18.40
2022-09-03T18:19:53.172Z,18.15
2022-09-03T18:22:41.276Z,17.90
2022-09-03T18:25:28.969Z,17.71
2022-09-03T18:28:19.270Z,17.52
2022-09-03T18:31:04.752Z,17.28
2022-09-03T18:33:50.026Z,17.07
2022-09-03T18:36:35.351Z,16.87
2022-09-03T18:39:34.376Z,16.63
2022-09-03T18:42:35.849Z,16.52
2022-09-03T18:46:17.558Z,16.39
2022-09-03T18:48:57.394Z,16.25
2022-09-03T18:51:59.433Z,16.29
2022-09-03T18:55:10.303Z,16.34
2022-09-03T18:58:21.903Z,16.36
2022-09-03T19:01:17.777Z,16.33
2022-09-03T19:04:17.855Z,16.34
2022-09-03T19:07:12.154Z,16.24
2022-09-03T19:10:12.672Z,16.16
2022-09-03T19:13:07.627Z,15.92
2022-09-03T19:16:03.919Z,15.86
2022-09-03T19:18:55.638Z,15.81
2022-09-03T19:21:57.738Z,15.77
2022-09-03T19:24:48.465Z,15.77
2022-09-03T19:28:00.413Z,15.71
2022-09-03T19:31:03.355Z,15.50
2022-09-03T19:34:33.685Z,15.57
2022-09-03T19:37:48.697Z,15.58
2022-09-03T19:41:12.022Z,15.45
2022-09-03T19:44:26.800Z,15.41
2022-09-03T19:47:16.575Z,15.46
2022-09-03T19:50:05.024Z,15.50
2022-09-03T19:53:11.563Z,15.58
2022-09-03T19:56:19.136Z,15.75
2022-09-03T19:59:18.963Z,15.90
2022-09-03T20:02:04.649Z,15.94
2022-09-03T20:05:00.465Z,15.94
2022-09-03T20:07:46.372Z,15.72
2022-09-03T20:10:22.430Z,15.62
2022-09-03T20:12:54.892Z,15.47
2022-09-03T20:15:26.379Z,15.43
2022-09-03T20:18:05.713Z,15.48
2022-09-03T20:20:52.271Z,15.45
2022-09-03T20:23:33.976Z,15.46
2022-09-03T20:26:27.913Z,15.46
2022-09-03T20:29:00.480Z,15.49
2022-09-03T20:31:29.819Z,15.49
2022-09-03T20:34:33.866Z,15.46
2022-09-03T20:37:15.539Z,15.45
2022-09-03T20:40:10.134Z,15.38
2022-09-03T20:42:45.452Z,15.28
2022-09-03T20:45:17.955Z,15.21
2022-09-03T20:47:45.107Z,15.20
2022-09-03T20:50:37.305Z,15.30
2022-09-03T20:53:24.687Z,15.43
2022-09-03T20:55:56.550Z,15.54
2022-09-03T20:59:01.340Z,15.55
2022-09-03T21:01:30.784Z,15.54
2022-09-03T21:04:21.366Z,15.59
2022-09-03T21:07:05.554Z,15.62
2022-09-03T21:10:03.855Z,15.58
2022-09-03T21:12:49.274Z,15.50
2022-09-03T21:15:22.366Z,15.43
2022-09-03T21:18:14.684Z,15.39
2022-09-03T21:20:57.047Z,15.33
2022-09-03T21:23:38.294Z,15.28
2022-09-03T21:26:14.693Z,15.27
2022-09-03T21:28:45.618Z,15.27
2022-09-03T21:31:21.930Z,15.21
2022-09-03T21:33:54.161Z,15.16
2022-09-03T21:36:30.355Z,15.08
2022-09-03T21:39:10.514Z,14.97
2022-09-03T21:41:41.886Z,14.95
2022-09-03T21:44:17.679Z,14.69
2022-09-03T21:46:56.643Z,14.46
2022-09-03T21:49:29.281Z,14.46
2022-09-03T21:52:02.063Z,14.40
2022-09-03T21:54:35.836Z,14.36
2022-09-03T21:57:08.401Z,14.32
2022-09-03T22:00:11.802Z,14.28
2022-09-03T22:02:41.264Z,14.27
2022-09-03T22:05:08.633Z,14.24
2022-09-03T22:07:53.910Z,14.25
2022-09-03T22:10:35.149Z,14.30
2022-09-03T22:13:14.897Z,14.46
2022-09-03T22:15:51.916Z,14.60
2022-09-03T22:18:29.242Z,14.75
2022-09-03T22:21:28.193Z,14.85
2022-09-03T22:24:39.928Z,14.87
2022-09-03T22:27:25.297Z,14.77
2022-09-03T22:30:37.651Z,14.77
2022-09-03T22:33:18.799Z,14.96
2022-09-03T22:35:54.568Z,15.07
2022-09-03T22:38:39.667Z,15.09
2022-09-03T22:41:43.953Z,15.21
2022-09-03T22:44:32.134Z,15.32
2022-09-03T22:47:28.074Z,15.32
2022-09-03T22:50:11.237Z,15.37
2022-09-03T22:52:41.407Z,15.33
2022-09-03T22:55:23.304Z,15.35
2022-09-03T22:57:53.269Z,15.31
2022-09-03T23:00:20.868Z,15.24
2022-09-03T23:03:00.067Z,15.21
2022-09-03T23:05:41.574Z,15.18
2022-09-03T23:08:27.479Z,15.12
2022-09-03T23:11:10.722Z,15.11
2022-09-03T23:13:50.281Z,15.07
2022-09-03T23:16:30.362Z,15.04
2022-09-03T23:18:59.737Z,15.00
2022-09-03T23:21:41.794Z,14.99
2022-09-03T23:24:27.082Z,14.93
2022-09-03T23:26:54.253Z,14.85
2022-09-03T23:29:53.723Z,14.65
2022-09-03T23:32:20.643Z,14.66
2022-09-03T23:34:47.244Z,14.70
2022-09-03T23:37:32.891Z,14.78
2022-09-03T23:40:34.539Z,14.90
2022-09-03T23:43:24.226Z,14.99
2022-09-03T23:46:25.326Z,15.07
2022-09-03T23:49:09.876Z,15.07
2022-09-03T23:52:01.265Z,14.99
2022-09-03T23:55:02.981Z,14.95
2022-09-03T23:57:53.150Z,14.77
